Bakersfield, California
Current Conditions -  °F | °C
As of 3:54 AM on Thursday 27 Nov 2014 (Local Time) from KBFL Reporting Station
Haze Haze  
Wind Chill: 47°   Ceiling: Unl
Heat Index: 47°   Visibility: 5mi
Dew Point: 39°   Wind: 0mph
Humidity: 74%   Direction: NA
Pressure: 30.19"   Gusts: NA
Location:  35.37°N, 119.01°W
Report Text: KBFL 271154Z AUTO 00000KT 5SM HZ CLR 08/04 A3019 RMK AO2 SLP221 T00830039 10122 20072 56009
Loading
Personal Weather Stations






























Interactive Weather Map New forecast layout! Learn more

10-Day Weather Forecast

Advertisements
Track Severe Weather on mobile